sensor_id;sensor_type;location;lat;lon;timestamp;P1;durP1;ratioP1;P2;durP2;ratioP2
43835;SDS011;39345;43.964;25.340;2023-08-01T00:00:45;11.85;;;9.70;;
43835;SDS011;39345;43.964;25.340;2023-08-01T00:03:13;10.90;;;9.55;;
43835;SDS011;39345;43.964;25.340;2023-08-01T00:05:41;11.10;;;10.00;;
43835;SDS011;39345;43.964;25.340;2023-08-01T00:08:11;10.43;;;9.43;;
43835;SDS011;39345;43.964;25.340;2023-08-01T00:10:39;11.85;;;10.65;;
43835;SDS011;39345;43.964;25.340;2023-08-01T00:13:07;11.60;;;10.45;;
43835;SDS011;39345;43.964;25.340;2023-08-01T00:15:34;11.93;;;10.82;;
43835;SDS011;39345;43.964;25.340;2023-08-01T00:18:02;12.00;;;10.80;;
43835;SDS011;39345;43.964;25.340;2023-08-01T00:20:29;12.07;;;10.93;;
43835;SDS011;39345;43.964;25.340;2023-08-01T00:22:57;12.70;;;11.32;;
43835;SDS011;39345;43.964;25.340;2023-08-01T00:25:24;12.52;;;11.23;;
43835;SDS011;39345;43.964;25.340;2023-08-01T00:27:52;12.43;;;11.20;;
43835;SDS011;39345;43.964;25.340;2023-08-01T00:30:20;12.73;;;11.43;;
43835;SDS011;39345;43.964;25.340;2023-08-01T00:32:47;11.88;;;10.77;;
43835;SDS011;39345;43.964;25.340;2023-08-01T00:35:15;11.68;;;10.52;;
43835;SDS011;39345;43.964;25.340;2023-08-01T00:37:43;12.65;;;10.45;;
43835;SDS011;39345;43.964;25.340;2023-08-01T00:40:11;11.70;;;10.18;;
43835;SDS011;39345;43.964;25.340;2023-08-01T00:42:38;11.27;;;10.18;;
43835;SDS011;39345;43.964;25.340;2023-08-01T00:45:06;11.50;;;10.30;;
43835;SDS011;39345;43.964;25.340;2023-08-01T00:47:34;14.18;;;11.25;;
43835;SDS011;39345;43.964;25.340;2023-08-01T00:50:02;11.57;;;10.38;;
43835;SDS011;39345;43.964;25.340;2023-08-01T00:52:30;12.40;;;11.10;;
43835;SDS011;39345;43.964;25.340;2023-08-01T00:54:57;12.02;;;10.85;;
43835;SDS011;39345;43.964;25.340;2023-08-01T00:57:25;12.00;;;10.82;;
43835;SDS011;39345;43.964;25.340;2023-08-01T00:59:52;12.40;;;11.10;;
43835;SDS011;39345;43.964;25.340;2023-08-01T01:02:19;11.90;;;10.65;;
43835;SDS011;39345;43.964;25.340;2023-08-01T01:04:47;11.77;;;10.60;;
43835;SDS011;39345;43.964;25.340;2023-08-01T01:07:15;12.45;;;11.00;;
43835;SDS011;39345;43.964;25.340;2023-08-01T01:09:44;12.95;;;11.43;;
43835;SDS011;39345;43.964;25.340;2023-08-01T01:12:11;12.43;;;11.23;;
43835;SDS011;39345;43.964;25.340;2023-08-01T01:14:39;12.55;;;11.25;;
43835;SDS011;39345;43.964;25.340;2023-08-01T01:17:06;13.02;;;11.50;;
43835;SDS011;39345;43.964;25.340;2023-08-01T01:19:34;12.85;;;11.48;;
43835;SDS011;39345;43.964;25.340;2023-08-01T01:22:17;12.85;;;11.50;;
43835;SDS011;39345;43.964;25.340;2023-08-01T01:24:46;13.10;;;11.80;;
43835;SDS011;39345;43.964;25.340;2023-08-01T01:27:14;13.20;;;11.82;;
43835;SDS011;39345;43.964;25.340;2023-08-01T01:29:43;12.73;;;11.43;;
43835;SDS011;39345;43.964;25.340;2023-08-01T01:32:10;13.35;;;11.95;;
43835;SDS011;39345;43.964;25.340;2023-08-01T01:34:38;13.27;;;11.85;;
43835;SDS011;39345;43.964;25.340;2023-08-01T01:37:06;13.00;;;11.60;;
43835;SDS011;39345;43.964;25.340;2023-08-01T01:39:33;13.82;;;12.43;;
43835;SDS011;39345;43.964;25.340;2023-08-01T01:42:01;13.57;;;12.13;;
43835;SDS011;39345;43.964;25.340;2023-08-01T01:44:29;14.57;;;13.02;;
43835;SDS011;39345;43.964;25.340;2023-08-01T01:46:58;14.55;;;13.05;;
43835;SDS011;39345;43.964;25.340;2023-08-01T01:49:25;14.00;;;12.70;;
43835;SDS011;39345;43.964;25.340;2023-08-01T01:51:53;16.35;;;13.52;;
43835;SDS011;39345;43.964;25.340;2023-08-01T01:54:23;14.60;;;13.10;;
43835;SDS011;39345;43.964;25.340;2023-08-01T01:56:51;15.48;;;13.93;;
43835;SDS011;39345;43.964;25.340;2023-08-01T01:59:18;14.82;;;13.15;;
43835;SDS011;39345;43.964;25.340;2023-08-01T02:01:46;14.38;;;12.93;;
43835;SDS011;39345;43.964;25.340;2023-08-01T02:04:13;16.38;;;13.90;;
43835;SDS011;39345;43.964;25.340;2023-08-01T02:06:41;15.60;;;13.98;;
43835;SDS011;39345;43.964;25.340;2023-08-01T02:09:08;15.07;;;13.48;;
43835;SDS011;39345;43.964;25.340;2023-08-01T02:11:36;14.00;;;12.60;;
43835;SDS011;39345;43.964;25.340;2023-08-01T02:14:04;13.75;;;12.40;;
43835;SDS011;39345;43.964;25.340;2023-08-01T02:16:31;14.57;;;13.05;;
43835;SDS011;39345;43.964;25.340;2023-08-01T02:18:59;14.60;;;13.07;;
43835;SDS011;39345;43.964;25.340;2023-08-01T02:21:27;14.15;;;12.75;;
43835;SDS011;39345;43.964;25.340;2023-08-01T02:23:54;16.77;;;12.98;;
43835;SDS011;39345;43.964;25.340;2023-08-01T02:26:22;14.68;;;13.20;;
43835;SDS011;39345;43.964;25.340;2023-08-01T02:28:50;14.45;;;12.90;;
43835;SDS011;39345;43.964;25.340;2023-08-01T02:31:18;14.25;;;12.80;;
43835;SDS011;39345;43.964;25.340;2023-08-01T02:33:46;14.70;;;12.90;;
43835;SDS011;39345;43.964;25.340;2023-08-01T02:36:14;13.70;;;12.30;;
43835;SDS011;39345;43.964;25.340;2023-08-01T02:38:41;14.52;;;12.93;;
43835;SDS011;39345;43.964;25.340;2023-08-01T02:41:09;13.85;;;12.45;;
43835;SDS011;39345;43.964;25.340;2023-08-01T02:43:36;13.93;;;12.43;;
43835;SDS011;39345;43.964;25.340;2023-08-01T02:46:04;14.30;;;12.90;;
43835;SDS011;39345;43.964;25.340;2023-08-01T02:48:32;14.25;;;12.75;;
43835;SDS011;39345;43.964;25.340;2023-08-01T02:51:01;14.07;;;12.60;;
43835;SDS011;39345;43.964;25.340;2023-08-01T02:53:29;14.02;;;12.60;;
43835;SDS011;39345;43.964;25.340;2023-08-01T02:55:56;15.32;;;12.75;;
43835;SDS011;39345;43.964;25.340;2023-08-01T02:58:24;13.10;;;11.80;;
43835;SDS011;39345;43.964;25.340;2023-08-01T03:00:51;14.15;;;12.75;;
43835;SDS011;39345;43.964;25.340;2023-08-01T03:03:19;14.77;;;12.30;;
43835;SDS011;39345;43.964;25.340;2023-08-01T03:05:47;15.05;;;13.07;;
43835;SDS011;39345;43.964;25.340;2023-08-01T03:08:14;15.10;;;13.60;;
43835;SDS011;39345;43.964;25.340;2023-08-01T03:10:42;15.75;;;14.15;;
43835;SDS011;39345;43.964;25.340;2023-08-01T03:13:09;15.77;;;14.00;;
43835;SDS011;39345;43.964;25.340;2023-08-01T03:15:37;14.27;;;12.80;;
43835;SDS011;39345;43.964;25.340;2023-08-01T03:18:04;16.88;;;12.93;;
43835;SDS011;39345;43.964;25.340;2023-08-01T03:20:33;14.75;;;12.70;;
43835;SDS011;39345;43.964;25.340;2023-08-01T03:23:01;15.50;;;12.70;;
43835;SDS011;39345;43.964;25.340;2023-08-01T03:25:28;14.63;;;13.05;;
43835;SDS011;39345;43.964;25.340;2023-08-01T03:27:56;14.35;;;12.95;;
43835;SDS011;39345;43.964;25.340;2023-08-01T03:30:24;14.35;;;12.85;;
43835;SDS011;39345;43.964;25.340;2023-08-01T03:32:54;16.17;;;13.38;;
43835;SDS011;39345;43.964;25.340;2023-08-01T03:35:21;14.95;;;11.98;;
43835;SDS011;39345;43.964;25.340;2023-08-01T03:37:51;13.75;;;12.35;;
43835;SDS011;39345;43.964;25.340;2023-08-01T03:40:18;13.57;;;12.02;;
43835;SDS011;39345;43.964;25.340;2023-08-01T03:42:46;15.65;;;12.98;;
43835;SDS011;39345;43.964;25.340;2023-08-01T03:45:13;13.43;;;12.13;;
43835;SDS011;39345;43.964;25.340;2023-08-01T03:47:41;15.05;;;12.85;;
43835;SDS011;39345;43.964;25.340;2023-08-01T03:50:08;14.50;;;12.75;;
43835;SDS011;39345;43.964;25.340;2023-08-01T03:52:36;17.75;;;12.35;;
43835;SDS011;39345;43.964;25.340;2023-08-01T03:55:04;14.25;;;12.27;;
43835;SDS011;39345;43.964;25.340;2023-08-01T03:57:31;15.15;;;12.65;;
43835;SDS011;39345;43.964;25.340;2023-08-01T04:00:02;16.20;;;13.25;;
43835;SDS011;39345;43.964;25.340;2023-08-01T04:02:37;16.45;;;13.13;;
43835;SDS011;39345;43.964;25.340;2023-08-01T04:05:05;15.57;;;13.38;;
43835;SDS011;39345;43.964;25.340;2023-08-01T04:07:32;15.05;;;13.50;;
43835;SDS011;39345;43.964;25.340;2023-08-01T04:10:00;15.32;;;13.02;;
43835;SDS011;39345;43.964;25.340;2023-08-01T04:12:28;15.40;;;13.90;;
43835;SDS011;39345;43.964;25.340;2023-08-01T04:14:59;14.55;;;13.02;;
43835;SDS011;39345;43.964;25.340;2023-08-01T04:17:26;17.50;;;13.63;;
43835;SDS011;39345;43.964;25.340;2023-08-01T04:19:56;18.08;;;13.55;;
43835;SDS011;39345;43.964;25.340;2023-08-01T04:22:23;15.70;;;14.00;;
43835;SDS011;39345;43.964;25.340;2023-08-01T04:24:51;14.70;;;13.18;;
43835;SDS011;39345;43.964;25.340;2023-08-01T04:27:18;15.05;;;12.90;;
43835;SDS011;39345;43.964;25.340;2023-08-01T04:29:46;17.23;;;14.35;;
43835;SDS011;39345;43.964;25.340;2023-08-01T04:32:13;16.02;;;12.27;;
43835;SDS011;39345;43.964;25.340;2023-08-01T04:34:41;14.73;;;13.30;;
43835;SDS011;39345;43.964;25.340;2023-08-01T04:37:09;13.75;;;12.38;;
43835;SDS011;39345;43.964;25.340;2023-08-01T04:39:39;15.07;;;13.35;;
43835;SDS011;39345;43.964;25.340;2023-08-01T04:42:07;18.08;;;15.07;;
43835;SDS011;39345;43.964;25.340;2023-08-01T04:44:34;13.85;;;12.45;;
43835;SDS011;39345;43.964;25.340;2023-08-01T04:47:02;14.13;;;12.73;;
43835;SDS011;39345;43.964;25.340;2023-08-01T04:49:29;15.43;;;13.13;;
43835;SDS011;39345;43.964;25.340;2023-08-01T04:51:56;14.43;;;12.95;;
43835;SDS011;39345;43.964;25.340;2023-08-01T04:54:24;13.50;;;12.15;;
43835;SDS011;39345;43.964;25.340;2023-08-01T04:56:51;13.60;;;12.20;;
43835;SDS011;39345;43.964;25.340;2023-08-01T04:59:19;13.70;;;12.02;;
43835;SDS011;39345;43.964;25.340;2023-08-01T05:01:46;15.77;;;12.70;;
43835;SDS011;39345;43.964;25.340;2023-08-01T05:04:14;14.02;;;12.25;;
43835;SDS011;39345;43.964;25.340;2023-08-01T05:06:41;13.25;;;11.90;;
43835;SDS011;39345;43.964;25.340;2023-08-01T05:09:09;13.40;;;12.02;;
43835;SDS011;39345;43.964;25.340;2023-08-01T05:11:36;13.00;;;11.70;;
43835;SDS011;39345;43.964;25.340;2023-08-01T05:14:04;12.25;;;10.95;;
43835;SDS011;39345;43.964;25.340;2023-08-01T05:16:32;14.68;;;11.88;;
43835;SDS011;39345;43.964;25.340;2023-08-01T05:18:59;13.57;;;11.75;;
43835;SDS011;39345;43.964;25.340;2023-08-01T05:21:27;15.75;;;11.82;;
43835;SDS011;39345;43.964;25.340;2023-08-01T05:23:54;12.70;;;11.50;;
43835;SDS011;39345;43.964;25.340;2023-08-01T05:26:22;12.35;;;11.13;;
43835;SDS011;39345;43.964;25.340;2023-08-01T05:28:49;13.20;;;11.80;;
43835;SDS011;39345;43.964;25.340;2023-08-01T05:31:17;13.02;;;11.73;;
43835;SDS011;39345;43.964;25.340;2023-08-01T05:33:44;13.65;;;12.18;;
43835;SDS011;39345;43.964;25.340;2023-08-01T05:36:12;13.50;;;12.10;;
43835;SDS011;39345;43.964;25.340;2023-08-01T05:38:40;13.85;;;12.50;;
43835;SDS011;39345;43.964;25.340;2023-08-01T05:41:07;14.45;;;13.00;;
43835;SDS011;39345;43.964;25.340;2023-08-01T05:43:35;16.88;;;13.30;;
43835;SDS011;39345;43.964;25.340;2023-08-01T05:46:02;15.52;;;13.32;;
43835;SDS011;39345;43.964;25.340;2023-08-01T05:48:30;14.48;;;13.07;;
43835;SDS011;39345;43.964;25.340;2023-08-01T05:50:57;15.45;;;13.48;;
43835;SDS011;39345;43.964;25.340;2023-08-01T05:53:25;13.88;;;12.48;;
43835;SDS011;39345;43.964;25.340;2023-08-01T05:55:53;15.05;;;13.27;;
43835;SDS011;39345;43.964;25.340;2023-08-01T05:58:21;14.77;;;12.07;;
43835;SDS011;39345;43.964;25.340;2023-08-01T06:00:48;14.13;;;12.55;;
43835;SDS011;39345;43.964;25.340;2023-08-01T06:03:16;14.20;;;12.70;;
43835;SDS011;39345;43.964;25.340;2023-08-01T06:05:44;12.65;;;10.95;;
43835;SDS011;39345;43.964;25.340;2023-08-01T06:08:12;12.35;;;11.10;;
43835;SDS011;39345;43.964;25.340;2023-08-01T06:10:41;13.88;;;11.23;;
43835;SDS011;39345;43.964;25.340;2023-08-01T06:13:09;11.98;;;10.80;;
43835;SDS011;39345;43.964;25.340;2023-08-01T06:15:37;12.43;;;11.23;;
43835;SDS011;39345;43.964;25.340;2023-08-01T06:18:04;12.98;;;11.68;;
43835;SDS011;39345;43.964;25.340;2023-08-01T06:20:32;12.40;;;11.20;;
43835;SDS011;39345;43.964;25.340;2023-08-01T06:22:59;11.52;;;10.35;;
43835;SDS011;39345;43.964;25.340;2023-08-01T06:25:26;11.95;;;10.73;;
43835;SDS011;39345;43.964;25.340;2023-08-01T06:27:54;13.98;;;11.15;;
43835;SDS011;39345;43.964;25.340;2023-08-01T06:30:22;12.10;;;10.80;;
43835;SDS011;39345;43.964;25.340;2023-08-01T06:32:49;12.23;;;9.90;;
43835;SDS011;39345;43.964;25.340;2023-08-01T06:35:17;11.05;;;9.45;;
43835;SDS011;39345;43.964;25.340;2023-08-01T06:37:44;9.25;;;8.35;;
43835;SDS011;39345;43.964;25.340;2023-08-01T06:40:12;10.27;;;9.25;;
43835;SDS011;39345;43.964;25.340;2023-08-01T06:42:39;9.77;;;8.88;;
43835;SDS011;39345;43.964;25.340;2023-08-01T06:45:07;8.70;;;7.82;;
43835;SDS011;39345;43.964;25.340;2023-08-01T06:47:35;9.30;;;8.40;;
43835;SDS011;39345;43.964;25.340;2023-08-01T06:50:02;8.77;;;7.85;;
43835;SDS011;39345;43.964;25.340;2023-08-01T06:52:31;8.73;;;7.82;;
43835;SDS011;39345;43.964;25.340;2023-08-01T06:54:58;9.15;;;8.27;;
43835;SDS011;39345;43.964;25.340;2023-08-01T06:57:26;8.77;;;7.82;;
43835;SDS011;39345;43.964;25.340;2023-08-01T06:59:53;9.80;;;8.75;;
43835;SDS011;39345;43.964;25.340;2023-08-01T07:02:21;9.18;;;8.27;;
43835;SDS011;39345;43.964;25.340;2023-08-01T07:04:48;10.90;;;8.15;;
43835;SDS011;39345;43.964;25.340;2023-08-01T07:07:16;8.55;;;7.75;;
43835;SDS011;39345;43.964;25.340;2023-08-01T07:09:43;11.00;;;7.90;;
43835;SDS011;39345;43.964;25.340;2023-08-01T07:12:11;11.88;;;8.68;;
43835;SDS011;39345;43.964;25.340;2023-08-01T07:14:38;9.10;;;8.13;;
43835;SDS011;39345;43.964;25.340;2023-08-01T07:17:06;10.90;;;8.30;;
43835;SDS011;39345;43.964;25.340;2023-08-01T07:19:33;10.43;;;8.82;;
43835;SDS011;39345;43.964;25.340;2023-08-01T07:22:01;9.35;;;8.55;;
43835;SDS011;39345;43.964;25.340;2023-08-01T07:24:28;10.52;;;9.52;;
43835;SDS011;39345;43.964;25.340;2023-08-01T07:26:56;13.25;;;9.23;;
43835;SDS011;39345;43.964;25.340;2023-08-01T07:29:23;11.10;;;9.85;;
43835;SDS011;39345;43.964;25.340;2023-08-01T07:31:51;12.18;;;10.73;;
43835;SDS011;39345;43.964;25.340;2023-08-01T07:34:19;13.57;;;12.00;;
43835;SDS011;39345;43.964;25.340;2023-08-01T07:36:49;11.70;;;10.23;;
43835;SDS011;39345;43.964;25.340;2023-08-01T07:39:16;12.32;;;10.68;;
43835;SDS011;39345;43.964;25.340;2023-08-01T07:41:44;15.32;;;13.07;;
43835;SDS011;39345;43.964;25.340;2023-08-01T07:44:11;16.10;;;14.45;;
43835;SDS011;39345;43.964;25.340;2023-08-01T07:46:39;12.18;;;10.85;;
43835;SDS011;39345;43.964;25.340;2023-08-01T07:49:07;13.05;;;11.75;;
43835;SDS011;39345;43.964;25.340;2023-08-01T07:51:35;12.23;;;11.05;;
43835;SDS011;39345;43.964;25.340;2023-08-01T07:54:02;12.82;;;11.52;;
43835;SDS011;39345;43.964;25.340;2023-08-01T07:56:30;13.18;;;11.77;;
43835;SDS011;39345;43.964;25.340;2023-08-01T07:58:57;11.52;;;9.73;;
43835;SDS011;39345;43.964;25.340;2023-08-01T08:01:25;11.02;;;10.00;;
43835;SDS011;39345;43.964;25.340;2023-08-01T08:03:53;9.40;;;8.38;;
43835;SDS011;39345;43.964;25.340;2023-08-01T08:06:20;9.98;;;9.07;;
43835;SDS011;39345;43.964;25.340;2023-08-01T08:08:48;9.70;;;8.65;;
43835;SDS011;39345;43.964;25.340;2023-08-01T08:11:16;9.80;;;8.60;;
43835;SDS011;39345;43.964;25.340;2023-08-01T08:13:43;8.50;;;7.70;;
43835;SDS011;39345;43.964;25.340;2023-08-01T08:16:11;9.98;;;8.98;;
43835;SDS011;39345;43.964;25.340;2023-08-01T08:18:39;10.20;;;9.10;;
43835;SDS011;39345;43.964;25.340;2023-08-01T08:21:06;9.50;;;8.55;;
43835;SDS011;39345;43.964;25.340;2023-08-01T08:23:34;9.35;;;7.85;;
43835;SDS011;39345;43.964;25.340;2023-08-01T08:26:01;8.82;;;7.97;;
43835;SDS011;39345;43.964;25.340;2023-08-01T08:28:31;8.48;;;7.60;;
43835;SDS011;39345;43.964;25.340;2023-08-01T08:31:00;10.68;;;9.05;;
43835;SDS011;39345;43.964;25.340;2023-08-01T08:33:28;8.48;;;7.68;;
43835;SDS011;39345;43.964;25.340;2023-08-01T08:35:56;7.28;;;6.32;;
43835;SDS011;39345;43.964;25.340;2023-08-01T08:38:23;7.18;;;6.47;;
43835;SDS011;39345;43.964;25.340;2023-08-01T08:43:18;7.90;;;6.68;;
43835;SDS011;39345;43.964;25.340;2023-08-01T08:45:46;7.13;;;6.10;;
43835;SDS011;39345;43.964;25.340;2023-08-01T08:48:17;8.15;;;6.35;;
43835;SDS011;39345;43.964;25.340;2023-08-01T08:50:46;6.25;;;5.65;;
43835;SDS011;39345;43.964;25.340;2023-08-01T08:53:14;6.60;;;6.00;;
43835;SDS011;39345;43.964;25.340;2023-08-01T08:55:42;8.02;;;5.93;;
43835;SDS011;39345;43.964;25.340;2023-08-01T08:58:10;7.22;;;6.20;;
43835;SDS011;39345;43.964;25.340;2023-08-01T09:00:38;7.20;;;5.97;;
43835;SDS011;39345;43.964;25.340;2023-08-01T09:03:05;7.78;;;7.07;;
43835;SDS011;39345;43.964;25.340;2023-08-01T09:08:15;8.13;;;6.65;;
43835;SDS011;39345;43.964;25.340;2023-08-01T09:10:43;10.02;;;7.47;;
43835;SDS011;39345;43.964;25.340;2023-08-01T09:13:11;8.00;;;7.20;;
43835;SDS011;39345;43.964;25.340;2023-08-01T09:15:39;7.95;;;6.82;;
43835;SDS011;39345;43.964;25.340;2023-08-01T09:18:08;9.30;;;7.47;;
43835;SDS011;39345;43.964;25.340;2023-08-01T09:20:48;8.85;;;7.95;;
43835;SDS011;39345;43.964;25.340;2023-08-01T09:23:16;9.25;;;8.18;;
43835;SDS011;39345;43.964;25.340;2023-08-01T09:25:44;9.88;;;8.95;;
43835;SDS011;39345;43.964;25.340;2023-08-01T09:28:19;9.55;;;8.63;;
43835;SDS011;39345;43.964;25.340;2023-08-01T09:30:51;10.23;;;8.60;;
43835;SDS011;39345;43.964;25.340;2023-08-01T09:33:21;11.48;;;8.77;;
43835;SDS011;39345;43.964;25.340;2023-08-01T09:35:49;10.05;;;9.00;;
43835;SDS011;39345;43.964;25.340;2023-08-01T09:38:17;10.30;;;9.30;;
43835;SDS011;39345;43.964;25.340;2023-08-01T09:40:45;13.15;;;9.05;;
43835;SDS011;39345;43.964;25.340;2023-08-01T09:43:13;11.52;;;10.43;;
43835;SDS011;39345;43.964;25.340;2023-08-01T09:45:50;14.80;;;11.73;;
43835;SDS011;39345;43.964;25.340;2023-08-01T09:48:22;25.67;;;21.55;;
43835;SDS011;39345;43.964;25.340;2023-08-01T09:50:50;16.08;;;11.52;;
43835;SDS011;39345;43.964;25.340;2023-08-01T09:53:19;11.63;;;9.93;;
43835;SDS011;39345;43.964;25.340;2023-08-01T09:55:47;15.95;;;12.95;;
43835;SDS011;39345;43.964;25.340;2023-08-01T09:58:16;12.40;;;10.15;;
43835;SDS011;39345;43.964;25.340;2023-08-01T10:00:44;13.60;;;12.15;;
43835;SDS011;39345;43.964;25.340;2023-08-01T10:03:11;10.70;;;9.60;;
43835;SDS011;39345;43.964;25.340;2023-08-01T10:05:40;12.88;;;11.57;;
43835;SDS011;39345;43.964;25.340;2023-08-01T10:08:08;10.43;;;9.20;;
43835;SDS011;39345;43.964;25.340;2023-08-01T10:10:35;19.80;;;17.77;;
43835;SDS011;39345;43.964;25.340;2023-08-01T10:13:03;10.45;;;8.38;;
43835;SDS011;39345;43.964;25.340;2023-08-01T10:15:31;13.50;;;9.68;;
43835;SDS011;39345;43.964;25.340;2023-08-01T10:17:58;15.52;;;12.15;;
43835;SDS011;39345;43.964;25.340;2023-08-01T10:20:26;8.43;;;6.68;;
43835;SDS011;39345;43.964;25.340;2023-08-01T10:22:54;6.40;;;5.18;;
43835;SDS011;39345;43.964;25.340;2023-08-01T10:25:22;6.75;;;5.72;;
43835;SDS011;39345;43.964;25.340;2023-08-01T10:28:02;7.40;;;5.80;;
43835;SDS011;39345;43.964;25.340;2023-08-01T10:30:30;6.57;;;5.47;;
43835;SDS011;39345;43.964;25.340;2023-08-01T10:32:58;8.63;;;6.63;;
43835;SDS011;39345;43.964;25.340;2023-08-01T10:35:36;6.63;;;5.03;;
43835;SDS011;39345;43.964;25.340;2023-08-01T10:38:07;10.23;;;7.65;;
43835;SDS011;39345;43.964;25.340;2023-08-01T10:40:36;7.10;;;6.00;;
43835;SDS011;39345;43.964;25.340;2023-08-01T10:43:03;8.15;;;6.47;;
43835;SDS011;39345;43.964;25.340;2023-08-01T10:45:31;10.45;;;5.40;;
43835;SDS011;39345;43.964;25.340;2023-08-01T10:48:06;6.25;;;4.40;;
43835;SDS011;39345;43.964;25.340;2023-08-01T10:50:34;7.32;;;5.25;;
43835;SDS011;39345;43.964;25.340;2023-08-01T10:53:05;7.95;;;5.50;;
43835;SDS011;39345;43.964;25.340;2023-08-01T10:55:40;7.72;;;5.47;;
43835;SDS011;39345;43.964;25.340;2023-08-01T10:58:08;5.63;;;4.20;;
43835;SDS011;39345;43.964;25.340;2023-08-01T11:00:35;6.90;;;4.63;;
43835;SDS011;39345;43.964;25.340;2023-08-01T11:03:03;9.95;;;4.60;;
43835;SDS011;39345;43.964;25.340;2023-08-01T11:05:30;5.70;;;4.15;;
43835;SDS011;39345;43.964;25.340;2023-08-01T11:07:59;10.00;;;4.57;;
43835;SDS011;39345;43.964;25.340;2023-08-01T11:10:27;6.45;;;4.70;;
43835;SDS011;39345;43.964;25.340;2023-08-01T11:12:55;7.47;;;5.32;;
43835;SDS011;39345;43.964;25.340;2023-08-01T11:15:23;5.95;;;4.40;;
43835;SDS011;39345;43.964;25.340;2023-08-01T11:17:51;4.90;;;4.40;;
43835;SDS011;39345;43.964;25.340;2023-08-01T11:20:20;4.97;;;3.90;;
43835;SDS011;39345;43.964;25.340;2023-08-01T11:22:55;5.03;;;4.53;;
43835;SDS011;39345;43.964;25.340;2023-08-01T11:25:37;6.60;;;4.20;;
43835;SDS011;39345;43.964;25.340;2023-08-01T11:28:15;5.55;;;4.13;;
43835;SDS011;39345;43.964;25.340;2023-08-01T11:30:42;4.43;;;4.03;;
43835;SDS011;39345;43.964;25.340;2023-08-01T11:33:19;4.85;;;3.45;;
43835;SDS011;39345;43.964;25.340;2023-08-01T11:35:50;5.75;;;3.70;;
43835;SDS011;39345;43.964;25.340;2023-08-01T11:38:20;4.32;;;3.60;;
43835;SDS011;39345;43.964;25.340;2023-08-01T11:40:48;5.28;;;3.78;;
43835;SDS011;39345;43.964;25.340;2023-08-01T11:43:16;5.30;;;3.20;;
43835;SDS011;39345;43.964;25.340;2023-08-01T11:45:53;7.07;;;4.03;;
43835;SDS011;39345;43.964;25.340;2023-08-01T11:48:21;4.15;;;3.55;;
43835;SDS011;39345;43.964;25.340;2023-08-01T11:50:56;3.80;;;3.40;;
43835;SDS011;39345;43.964;25.340;2023-08-01T11:53:23;4.97;;;3.67;;
43835;SDS011;39345;43.964;25.340;2023-08-01T11:55:51;3.92;;;3.50;;
43835;SDS011;39345;43.964;25.340;2023-08-01T11:58:29;4.90;;;3.80;;
43835;SDS011;39345;43.964;25.340;2023-08-01T12:03:30;4.63;;;3.90;;
43835;SDS011;39345;43.964;25.340;2023-08-01T12:06:05;5.30;;;3.83;;
43835;SDS011;39345;43.964;25.340;2023-08-01T12:08:38;4.97;;;4.28;;
43835;SDS011;39345;43.964;25.340;2023-08-01T12:11:05;6.80;;;4.13;;
43835;SDS011;39345;43.964;25.340;2023-08-01T12:13:33;5.07;;;4.13;;
43835;SDS011;39345;43.964;25.340;2023-08-01T12:16:00;5.90;;;4.18;;
43835;SDS011;39345;43.964;25.340;2023-08-01T12:18:28;4.03;;;3.63;;
43835;SDS011;39345;43.964;25.340;2023-08-01T12:20:59;9.18;;;4.32;;
43835;SDS011;39345;43.964;25.340;2023-08-01T12:23:26;8.07;;;3.60;;
43835;SDS011;39345;43.964;25.340;2023-08-01T12:25:54;5.05;;;4.53;;
43835;SDS011;39345;43.964;25.340;2023-08-01T12:28:21;4.95;;;3.47;;
43835;SDS011;39345;43.964;25.340;2023-08-01T12:30:49;4.60;;;3.63;;
43835;SDS011;39345;43.964;25.340;2023-08-01T12:33:18;5.82;;;3.50;;
43835;SDS011;39345;43.964;25.340;2023-08-01T12:35:45;4.47;;;3.50;;
43835;SDS011;39345;43.964;25.340;2023-08-01T12:38:13;7.85;;;3.58;;
43835;SDS011;39345;43.964;25.340;2023-08-01T12:40:40;5.82;;;3.90;;
43835;SDS011;39345;43.964;25.340;2023-08-01T12:43:08;5.30;;;3.50;;
43835;SDS011;39345;43.964;25.340;2023-08-01T12:45:36;4.15;;;3.53;;
43835;SDS011;39345;43.964;25.340;2023-08-01T12:48:03;4.82;;;3.40;;
43835;SDS011;39345;43.964;25.340;2023-08-01T12:50:31;5.40;;;3.78;;
43835;SDS011;39345;43.964;25.340;2023-08-01T12:52:58;3.53;;;3.22;;
43835;SDS011;39345;43.964;25.340;2023-08-01T12:55:26;7.63;;;4.30;;
43835;SDS011;39345;43.964;25.340;2023-08-01T12:57:53;4.97;;;3.08;;
43835;SDS011;39345;43.964;25.340;2023-08-01T13:00:21;4.65;;;3.40;;
43835;SDS011;39345;43.964;25.340;2023-08-01T13:02:48;7.13;;;3.80;;
43835;SDS011;39345;43.964;25.340;2023-08-01T13:05:17;6.93;;;3.28;;
43835;SDS011;39345;43.964;25.340;2023-08-01T13:07:44;4.75;;;3.40;;
43835;SDS011;39345;43.964;25.340;2023-08-01T13:10:12;4.78;;;3.70;;
43835;SDS011;39345;43.964;25.340;2023-08-01T13:12:41;7.95;;;3.42;;
43835;SDS011;39345;43.964;25.340;2023-08-01T13:15:08;5.05;;;4.00;;
43835;SDS011;39345;43.964;25.340;2023-08-01T13:17:43;4.55;;;3.45;;
43835;SDS011;39345;43.964;25.340;2023-08-01T13:20:11;5.80;;;3.65;;
43835;SDS011;39345;43.964;25.340;2023-08-01T13:22:39;4.95;;;4.07;;
43835;SDS011;39345;43.964;25.340;2023-08-01T13:25:06;4.80;;;3.53;;
43835;SDS011;39345;43.964;25.340;2023-08-01T13:27:34;4.47;;;2.88;;
43835;SDS011;39345;43.964;25.340;2023-08-01T13:30:02;4.80;;;3.47;;
43835;SDS011;39345;43.964;25.340;2023-08-01T13:32:30;6.13;;;3.30;;
43835;SDS011;39345;43.964;25.340;2023-08-01T13:34:57;3.03;;;2.75;;
43835;SDS011;39345;43.964;25.340;2023-08-01T13:37:25;3.88;;;2.97;;
43835;SDS011;39345;43.964;25.340;2023-08-01T13:39:53;4.15;;;3.00;;
43835;SDS011;39345;43.964;25.340;2023-08-01T13:42:20;3.33;;;3.03;;
43835;SDS011;39345;43.964;25.340;2023-08-01T13:44:48;5.15;;;3.28;;
43835;SDS011;39345;43.964;25.340;2023-08-01T13:47:15;4.20;;;3.30;;
43835;SDS011;39345;43.964;25.340;2023-08-01T13:49:43;5.72;;;3.30;;
43835;SDS011;39345;43.964;25.340;2023-08-01T13:52:10;4.55;;;3.25;;
43835;SDS011;39345;43.964;25.340;2023-08-01T13:54:38;6.95;;;3.47;;
43835;SDS011;39345;43.964;25.340;2023-08-01T13:57:06;3.25;;;2.95;;
43835;SDS011;39345;43.964;25.340;2023-08-01T13:59:33;5.47;;;3.83;;
43835;SDS011;39345;43.964;25.340;2023-08-01T14:02:01;8.55;;;6.45;;
43835;SDS011;39345;43.964;25.340;2023-08-01T14:04:29;4.57;;;3.13;;
43835;SDS011;39345;43.964;25.340;2023-08-01T14:06:57;4.47;;;3.10;;
43835;SDS011;39345;43.964;25.340;2023-08-01T14:09:24;4.75;;;3.35;;
43835;SDS011;39345;43.964;25.340;2023-08-01T14:11:52;4.18;;;3.30;;
43835;SDS011;39345;43.964;25.340;2023-08-01T14:14:19;5.20;;;3.97;;
43835;SDS011;39345;43.964;25.340;2023-08-01T14:16:48;3.67;;;2.97;;
43835;SDS011;39345;43.964;25.340;2023-08-01T14:19:16;3.80;;;3.03;;
43835;SDS011;39345;43.964;25.340;2023-08-01T14:21:44;4.00;;;3.38;;
43835;SDS011;39345;43.964;25.340;2023-08-01T14:24:11;5.57;;;3.28;;
43835;SDS011;39345;43.964;25.340;2023-08-01T14:26:39;4.25;;;3.15;;
43835;SDS011;39345;43.964;25.340;2023-08-01T14:29:08;4.20;;;3.60;;
43835;SDS011;39345;43.964;25.340;2023-08-01T14:31:35;6.40;;;3.40;;
43835;SDS011;39345;43.964;25.340;2023-08-01T14:34:03;3.83;;;3.20;;